Time;durP1;ratioP1;P1;durP2;ratioP2;P2;SDS_P1;SDS_P2;PMS_P1;PMS_P2;Temp;Humidity;BMP_temperature;BMP_pressure;BME280_temperature;BME280_humidity;BME280_pressure;Samples;Min_cycle;Max_cycle;Signal;HPM_P1;HPM_P2
2022/07/09 00:00:00;;;;;;;9.70;3.47;;;;;;;;;;5011135;28;20486;-77
2022/07/09 00:02:25;;;;;;;7.75;2.67;;;;;;;;;;5012327;28;20037;-76
2022/07/09 00:04:51;;;;;;;7.35;3.03;;;;;;;;;;5011046;28;20053;-76
2022/07/09 00:07:16;;;;;;;7.00;3.00;;;;;;;;;;5010922;28;20037;-77
2022/07/09 00:09:42;;;;;;;4.30;2.50;;;;;;;;;;5012318;28;20777;-77
2022/07/09 00:12:08;;;;;;;7.97;3.15;;;;;;;;;;5012630;28;20026;-77
2022/07/09 00:14:34;;;;;;;8.32;3.13;;;;;;;;;;5010994;28;20026;-77
2022/07/09 00:16:59;;;;;;;7.82;3.50;;;;;;;;;;5011007;28;20022;-77
2022/07/09 00:19:25;;;;;;;15.60;3.83;;;;;;;;;;5010913;28;20111;-76
2022/07/09 00:21:50;;;;;;;6.65;3.08;;;;;;;;;;5027438;28;20033;-77
2022/07/09 00:24:16;;;;;;;11.38;3.45;;;;;;;;;;5010267;28;20519;-77
2022/07/09 00:26:41;;;;;;;10.10;3.13;;;;;;;;;;5010420;28;20037;-77
2022/07/09 00:29:06;;;;;;;9.43;4.45;;;;;;;;;;5010561;28;20025;-76
2022/07/09 00:31:32;;;;;;;5.82;3.08;;;;;;;;;;5027013;28;20221;-77
2022/07/09 00:33:57;;;;;;;7.25;3.20;;;;;;;;;;5010773;28;20048;-77
2022/07/09 00:36:23;;;;;;;6.57;3.33;;;;;;;;;;5012005;28;20029;-76
2022/07/09 00:38:48;;;;;;;5.90;3.30;;;;;;;;;;5010317;28;20408;-76
2022/07/09 00:41:14;;;;;;;7.65;3.83;;;;;;;;;;5010406;28;20395;-76
2022/07/09 00:43:46;;;;;;;9.80;3.60;;;;;;;;;;5009961;28;20022;-76
2022/07/09 00:46:11;;;;;;;8.38;3.58;;;;;;;;;;5010236;28;20026;-77
2022/07/09 00:48:37;;;;;;;5.80;3.90;;;;;;;;;;5009672;28;20334;-76
2022/07/09 00:51:02;;;;;;;7.13;3.33;;;;;;;;;;5011362;28;20025;-77
2022/07/09 00:53:28;;;;;;;8.30;2.97;;;;;;;;;;5009956;28;20096;-77
2022/07/09 00:55:54;;;;;;;7.93;3.22;;;;;;;;;;5011583;28;20518;-77
2022/07/09 00:58:21;;;;;;;10.40;3.20;;;;;;;;;;5011481;28;20028;-76
2022/07/09 01:00:47;;;;;;;13.57;5.15;;;;;;;;;;5026177;28;20112;-76
2022/07/09 01:03:12;;;;;;;5.30;3.00;;;;;;;;;;5011287;28;20526;-76
2022/07/09 01:05:38;;;;;;;8.75;3.45;;;;;;;;;;5010951;28;20029;-76
2022/07/09 01:08:05;;;;;;;11.45;3.72;;;;;;;;;;5009863;28;20108;-76
2022/07/09 01:10:31;;;;;;;7.60;4.05;;;;;;;;;;5009727;28;20018;-76
2022/07/09 01:12:57;;;;;;;6.82;3.00;;;;;;;;;;5009801;28;20033;-77
2022/07/09 01:15:23;;;;;;;9.38;3.13;;;;;;;;;;5011419;28;20028;-77
2022/07/09 01:17:49;;;;;;;8.57;3.78;;;;;;;;;;5009307;28;20029;-76
2022/07/09 01:20:22;;;;;;;12.57;4.25;;;;;;;;;;5009632;28;20204;-77
2022/07/09 01:22:47;;;;;;;8.38;3.95;;;;;;;;;;5010495;28;20021;-76
2022/07/09 01:25:16;;;;;;;7.13;4.00;;;;;;;;;;5025355;28;20057;-77
2022/07/09 01:27:42;;;;;;;6.47;3.38;;;;;;;;;;5009175;28;20038;-77
2022/07/09 01:30:07;;;;;;;6.38;3.42;;;;;;;;;;5010743;28;20378;-77
2022/07/09 01:32:33;;;;;;;9.35;3.45;;;;;;;;;;5010994;28;20022;-77
2022/07/09 01:34:58;;;;;;;11.65;4.07;;;;;;;;;;5011100;28;20334;-77
2022/07/09 01:37:24;;;;;;;9.82;3.25;;;;;;;;;;5009307;28;20393;-77
2022/07/09 01:39:52;;;;;;;7.43;3.35;;;;;;;;;;5009141;28;20105;-76
2022/07/09 01:42:19;;;;;;;8.35;3.63;;;;;;;;;;5009489;28;20414;-76
2022/07/09 01:44:45;;;;;;;9.20;3.47;;;;;;;;;;5010477;28;20466;-76
2022/07/09 01:47:11;;;;;;;4.78;2.47;;;;;;;;;;5010500;28;20367;-76
2022/07/09 01:49:37;;;;;;;10.32;3.60;;;;;;;;;;5008649;28;20172;-76
2022/07/09 01:52:04;;;;;;;8.23;3.28;;;;;;;;;;5009167;28;20038;-76
2022/07/09 01:54:29;;;;;;;7.82;4.13;;;;;;;;;;5009097;28;20025;-76
2022/07/09 01:56:55;;;;;;;8.00;3.10;;;;;;;;;;5010292;28;20087;-76
2022/07/09 01:59:20;;;;;;;15.25;3.58;;;;;;;;;;5008844;28;20029;-76
2022/07/09 02:01:46;;;;;;;7.03;3.42;;;;;;;;;;5010216;28;20033;-76
2022/07/09 02:04:11;;;;;;;6.15;3.33;;;;;;;;;;5025239;28;20045;-77
2022/07/09 02:06:37;;;;;;;6.95;3.30;;;;;;;;;;5025498;28;20049;-75
2022/07/09 02:09:03;;;;;;;5.30;2.80;;;;;;;;;;5011390;28;20490;-76
2022/07/09 02:11:28;;;;;;;7.63;3.35;;;;;;;;;;5009328;28;20029;-76
2022/07/09 02:13:54;;;;;;;9.18;3.15;;;;;;;;;;5008561;28;20032;-76
2022/07/09 02:16:19;;;;;;;4.85;3.70;;;;;;;;;;5010058;28;20022;-76
2022/07/09 02:18:45;;;;;;;8.95;4.28;;;;;;;;;;5008670;28;20391;-76
2022/07/09 02:21:11;;;;;;;5.68;3.58;;;;;;;;;;5010063;28;20036;-76
2022/07/09 02:23:37;;;;;;;14.00;3.88;;;;;;;;;;5009892;28;20040;-76
2022/07/09 02:26:02;;;;;;;11.43;5.13;;;;;;;;;;5009790;28;20054;-76
2022/07/09 02:28:28;;;;;;;3.90;3.17;;;;;;;;;;5009985;28;20092;-76
2022/07/09 02:30:54;;;;;;;11.68;3.90;;;;;;;;;;5024697;28;20066;-76
2022/07/09 02:33:20;;;;;;;6.68;3.38;;;;;;;;;;5009939;28;20402;-76
2022/07/09 02:35:46;;;;;;;7.03;3.47;;;;;;;;;;5008221;28;20026;-77
2022/07/09 02:38:11;;;;;;;3.60;2.78;;;;;;;;;;5009031;28;20049;-76
2022/07/09 02:40:37;;;;;;;6.43;3.35;;;;;;;;;;5008278;28;20327;-76
2022/07/09 02:43:02;;;;;;;8.75;3.47;;;;;;;;;;5025394;28;20390;-77
2022/07/09 02:45:28;;;;;;;7.70;3.67;;;;;;;;;;5024845;28;20057;-76
2022/07/09 02:47:53;;;;;;;5.47;3.25;;;;;;;;;;5008696;28;20525;-76
2022/07/09 02:50:19;;;;;;;4.43;3.88;;;;;;;;;;5009916;28;20033;-76
2022/07/09 02:52:44;;;;;;;9.32;3.50;;;;;;;;;;5010162;28;20022;-76
2022/07/09 02:55:10;;;;;;;11.55;3.80;;;;;;;;;;5009713;28;20030;-76
2022/07/09 02:57:35;;;;;;;4.93;2.90;;;;;;;;;;5008482;28;20029;-76
2022/07/09 03:00:01;;;;;;;5.63;3.20;;;;;;;;;;5009404;28;20026;-76
2022/07/09 03:02:26;;;;;;;3.95;3.42;;;;;;;;;;5009833;28;20040;-76
2022/07/09 03:04:52;;;;;;;5.38;3.35;;;;;;;;;;5009355;28;20033;-76
2022/07/09 03:07:17;;;;;;;7.13;3.33;;;;;;;;;;5009762;28;20030;-76
2022/07/09 03:09:43;;;;;;;7.63;3.38;;;;;;;;;;5009723;28;20033;-76
2022/07/09 03:12:09;;;;;;;10.40;3.72;;;;;;;;;;5027434;28;20506;-76
2022/07/09 03:14:34;;;;;;;9.05;3.58;;;;;;;;;;5014856;28;20025;-76
2022/07/09 03:17:00;;;;;;;10.85;4.32;;;;;;;;;;5013304;28;20134;-76
2022/07/09 03:19:25;;;;;;;7.68;3.75;;;;;;;;;;5012851;28;20509;-73
2022/07/09 03:21:51;;;;;;;7.93;3.97;;;;;;;;;;5011424;28;20037;-73
2022/07/09 03:24:16;;;;;;;10.95;4.25;;;;;;;;;;5011662;28;20082;-74
2022/07/09 03:26:42;;;;;;;8.52;3.85;;;;;;;;;;5011168;28;20025;-74
2022/07/09 03:29:07;;;;;;;7.50;3.78;;;;;;;;;;5011774;28;20040;-74
2022/07/09 03:31:34;;;;;;;9.35;5.82;;;;;;;;;;5012057;28;20025;-74
2022/07/09 03:33:59;;;;;;;5.75;4.20;;;;;;;;;;5011532;28;20195;-73
2022/07/09 03:36:25;;;;;;;14.98;7.80;;;;;;;;;;5014836;28;20105;-74
2022/07/09 03:38:50;;;;;;;11.65;4.68;;;;;;;;;;5013203;28;20453;-73
2022/07/09 03:41:16;;;;;;;12.38;4.15;;;;;;;;;;5014312;28;20492;-73
2022/07/09 03:43:41;;;;;;;7.35;4.30;;;;;;;;;;5012610;28;20030;-73
2022/07/09 03:46:07;;;;;;;8.20;4.30;;;;;;;;;;5012189;28;20033;-73
2022/07/09 03:48:35;;;;;;;13.10;4.32;;;;;;;;;;5028105;28;20445;-74
2022/07/09 03:51:01;;;;;;;6.95;3.78;;;;;;;;;;5012340;28;20040;-73
2022/07/09 03:53:26;;;;;;;7.43;4.15;;;;;;;;;;5012736;28;20030;-73
2022/07/09 03:55:52;;;;;;;10.35;3.80;;;;;;;;;;5012013;28;20437;-74
2022/07/09 03:58:17;;;;;;;6.95;4.25;;;;;;;;;;5012674;28;20036;-73
2022/07/09 04:00:43;;;;;;;11.77;3.90;;;;;;;;;;5010897;28;20117;-73
2022/07/09 04:03:08;;;;;;;8.70;4.10;;;;;;;;;;5012584;28;20560;-72
2022/07/09 04:05:34;;;;;;;6.20;4.18;;;;;;;;;;5012436;28;20034;-73
2022/07/09 04:07:59;;;;;;;11.85;3.85;;;;;;;;;;5011275;28;20041;-74
2022/07/09 04:10:25;;;;;;;8.20;4.13;;;;;;;;;;5012669;28;20101;-74
2022/07/09 04:12:50;;;;;;;10.98;3.83;;;;;;;;;;5011065;28;20036;-74
2022/07/09 04:15:16;;;;;;;6.18;4.20;;;;;;;;;;5011488;28;20040;-73
2022/07/09 04:17:43;;;;;;;4.28;3.58;;;;;;;;;;5012374;28;20071;-74
2022/07/09 04:20:09;;;;;;;6.88;3.72;;;;;;;;;;5013731;28;20407;-73
2022/07/09 04:22:34;;;;;;;11.10;4.22;;;;;;;;;;5013301;28;20030;-74
2022/07/09 04:25:00;;;;;;;11.18;5.20;;;;;;;;;;5013884;28;20053;-74
2022/07/09 04:27:26;;;;;;;5.97;3.90;;;;;;;;;;5011115;28;20171;-73
2022/07/09 04:29:51;;;;;;;9.20;4.80;;;;;;;;;;5012198;28;20064;-73
2022/07/09 04:32:17;;;;;;;6.45;3.67;;;;;;;;;;5010471;28;20053;-74
2022/07/09 04:34:42;;;;;;;7.00;4.47;;;;;;;;;;5010251;28;20085;-75
2022/07/09 04:37:08;;;;;;;7.25;3.83;;;;;;;;;;5010695;28;20071;-74
2022/07/09 04:39:33;;;;;;;8.65;3.65;;;;;;;;;;5010196;28;20116;-72
2022/07/09 04:41:59;;;;;;;8.50;4.03;;;;;;;;;;5010224;28;20142;-73
2022/07/09 04:44:24;;;;;;;7.63;3.47;;;;;;;;;;5011663;28;20479;-73
2022/07/09 04:46:50;;;;;;;9.77;4.45;;;;;;;;;;5011466;28;20069;-74
2022/07/09 04:49:15;;;;;;;12.25;4.32;;;;;;;;;;5010303;28;20109;-74
2022/07/09 04:51:41;;;;;;;6.53;3.78;;;;;;;;;;5009883;28;20042;-73
2022/07/09 04:54:06;;;;;;;13.57;3.60;;;;;;;;;;5011521;28;20215;-73
2022/07/09 04:56:35;;;;;;;13.32;3.97;;;;;;;;;;5009737;28;20030;-73
2022/07/09 04:59:02;;;;;;;7.63;3.95;;;;;;;;;;5009678;28;20050;-74
2022/07/09 05:01:29;;;;;;;5.47;4.38;;;;;;;;;;5011396;28;20026;-74
2022/07/09 05:03:55;;;;;;;7.20;3.47;;;;;;;;;;5011027;28;20022;-74
2022/07/09 05:06:21;;;;;;;16.48;4.03;;;;;;;;;;5009532;28;20033;-74
2022/07/09 05:08:47;;;;;;;13.18;5.68;;;;;;;;;;5009509;28;20041;-74
2022/07/09 05:11:13;;;;;;;5.65;3.55;;;;;;;;;;5009742;28;20512;-74
2022/07/09 05:13:42;;;;;;;6.82;3.03;;;;;;;;;;5010006;28;20036;-74
2022/07/09 05:16:08;;;;;;;7.88;3.88;;;;;;;;;;5011262;28;20037;-75
2022/07/09 05:18:34;;;;;;;5.25;3.22;;;;;;;;;;5009606;28;20034;-74
2022/07/09 05:20:59;;;;;;;5.38;2.95;;;;;;;;;;5009301;28;20113;-75
2022/07/09 05:23:25;;;;;;;9.48;3.33;;;;;;;;;;5010594;28;20117;-73
2022/07/09 05:25:50;;;;;;;4.68;3.08;;;;;;;;;;5010487;28;20426;-73
2022/07/09 05:28:16;;;;;;;10.68;3.65;;;;;;;;;;5009370;28;20320;-74
2022/07/09 05:30:41;;;;;;;8.18;3.28;;;;;;;;;;5010578;28;20474;-73
2022/07/09 05:33:07;;;;;;;5.25;3.08;;;;;;;;;;5010576;28;20476;-74
2022/07/09 05:35:33;;;;;;;3.72;3.40;;;;;;;;;;5008740;28;20026;-74
2022/07/09 05:37:59;;;;;;;6.47;3.22;;;;;;;;;;5010792;28;20041;-74
2022/07/09 05:40:25;;;;;;;4.80;3.38;;;;;;;;;;5009718;28;20056;-74
2022/07/09 05:42:50;;;;;;;10.27;3.10;;;;;;;;;;5009087;28;20025;-73
2022/07/09 05:45:16;;;;;;;6.80;2.88;;;;;;;;;;5009454;28;20033;-73
2022/07/09 05:47:41;;;;;;;5.85;3.33;;;;;;;;;;5010617;28;20084;-74
2022/07/09 05:50:07;;;;;;;13.65;4.22;;;;;;;;;;5009114;28;20405;-74
2022/07/09 05:52:33;;;;;;;5.25;2.88;;;;;;;;;;5008792;28;20120;-73
2022/07/09 05:54:58;;;;;;;4.28;2.90;;;;;;;;;;5008687;28;20125;-73
2022/07/09 05:57:24;;;;;;;7.60;3.60;;;;;;;;;;5010588;28;20084;-74
2022/07/09 05:59:50;;;;;;;8.90;3.15;;;;;;;;;;5008989;28;20037;-73
2022/07/09 06:02:15;;;;;;;5.35;3.00;;;;;;;;;;5010393;28;20434;-74
2022/07/09 06:04:41;;;;;;;6.18;3.47;;;;;;;;;;5008692;28;20030;-74
2022/07/09 06:07:06;;;;;;;7.45;3.00;;;;;;;;;;5024908;28;20037;-74
2022/07/09 06:09:32;;;;;;;4.35;2.97;;;;;;;;;;5010304;28;20038;-74
2022/07/09 06:11:58;;;;;;;5.68;3.20;;;;;;;;;;5009976;28;20080;-74
2022/07/09 06:14:24;;;;;;;8.23;3.03;;;;;;;;;;5008682;28;20088;-72
2022/07/09 06:16:49;;;;;;;8.13;3.38;;;;;;;;;;5008723;28;20088;-75
2022/07/09 06:19:15;;;;;;;7.40;3.10;;;;;;;;;;5025327;28;20053;-74
2022/07/09 06:21:41;;;;;;;7.57;3.17;;;;;;;;;;5009961;28;20029;-73
2022/07/09 06:24:07;;;;;;;8.32;3.33;;;;;;;;;;5009557;28;20041;-74
2022/07/09 06:26:36;;;;;;;6.55;3.15;;;;;;;;;;5009999;28;20026;-74
2022/07/09 06:29:01;;;;;;;8.30;3.35;;;;;;;;;;5009682;28;20087;-73
2022/07/09 06:31:27;;;;;;;5.95;3.28;;;;;;;;;;5008610;28;20474;-73
2022/07/09 06:33:52;;;;;;;6.68;2.90;;;;;;;;;;5008207;28;20026;-73
2022/07/09 06:36:18;;;;;;;6.85;4.55;;;;;;;;;;5008578;28;20165;-74
2022/07/09 06:41:28;;;;;;;7.03;3.30;;;;;;;;;;5009929;28;20160;-73
2022/07/09 06:43:54;;;;;;;11.65;3.03;;;;;;;;;;5009821;28;20108;-75
2022/07/09 06:46:20;;;;;;;4.45;2.78;;;;;;;;;;5009391;28;20033;-75
2022/07/09 06:48:45;;;;;;;4.75;3.03;;;;;;;;;;5013969;28;20454;-76
2022/07/09 06:51:11;;;;;;;6.72;3.15;;;;;;;;;;5012453;28;20117;-77
2022/07/09 06:53:37;;;;;;;13.02;3.05;;;;;;;;;;5012542;28;20470;-77
2022/07/09 06:56:03;;;;;;;7.35;3.05;;;;;;;;;;5013698;28;20025;-77
2022/07/09 06:58:28;;;;;;;6.03;3.15;;;;;;;;;;5013539;28;20470;-79
2022/07/09 07:00:54;;;;;;;4.57;2.80;;;;;;;;;;5011947;28;20039;-76
2022/07/09 07:03:19;;;;;;;5.15;3.40;;;;;;;;;;5012171;28;20034;-77
2022/07/09 07:05:45;;;;;;;7.57;3.47;;;;;;;;;;5012350;28;20065;-76
2022/07/09 07:08:10;;;;;;;7.75;3.10;;;;;;;;;;5013135;28;20489;-77
2022/07/09 07:10:36;;;;;;;6.05;3.22;;;;;;;;;;5012304;28;20064;-77
2022/07/09 07:13:01;;;;;;;8.65;3.53;;;;;;;;;;5011668;28;20026;-77
2022/07/09 07:15:27;;;;;;;4.93;3.00;;;;;;;;;;5012330;28;20450;-77
2022/07/09 07:17:52;;;;;;;5.65;3.70;;;;;;;;;;5013214;28;20079;-77
2022/07/09 07:20:22;;;;;;;5.38;3.30;;;;;;;;;;5012453;28;20214;-76
2022/07/09 07:22:48;;;;;;;5.22;3.30;;;;;;;;;;5012314;28;20071;-77
2022/07/09 07:25:14;;;;;;;5.43;3.45;;;;;;;;;;5011174;28;20054;-77
2022/07/09 07:27:39;;;;;;;6.22;3.47;;;;;;;;;;5011713;28;20045;-76
2022/07/09 07:30:05;;;;;;;7.97;3.45;;;;;;;;;;5011613;28;20038;-76
2022/07/09 07:32:31;;;;;;;6.55;3.47;;;;;;;;;;5011545;28;20102;-77
2022/07/09 07:34:56;;;;;;;7.05;3.55;;;;;;;;;;5011409;28;20120;-77
2022/07/09 07:37:22;;;;;;;9.30;3.97;;;;;;;;;;5028219;28;20048;-76
2022/07/09 07:39:50;;;;;;;5.80;4.32;;;;;;;;;;5015216;28;20497;-77
2022/07/09 07:42:15;;;;;;;4.88;4.00;;;;;;;;;;5013398;28;20048;-76
2022/07/09 07:44:42;;;;;;;9.75;4.53;;;;;;;;;;5013542;28;20513;-78
2022/07/09 07:47:07;;;;;;;4.68;4.13;;;;;;;;;;5011333;28;20091;-76
2022/07/09 07:49:33;;;;;;;7.38;5.00;;;;;;;;;;5011557;28;20490;-77
2022/07/09 07:51:58;;;;;;;7.82;4.82;;;;;;;;;;5012868;28;20339;-77
2022/07/09 07:54:24;;;;;;;7.13;5.20;;;;;;;;;;5011335;28;20033;-77
2022/07/09 07:56:50;;;;;;;6.25;4.78;;;;;;;;;;5011541;28;20018;-77
2022/07/09 07:59:16;;;;;;;7.70;5.40;;;;;;;;;;5011286;28;20030;-77
2022/07/09 08:01:41;;;;;;;8.93;5.05;;;;;;;;;;5011300;28;20398;-77
2022/07/09 08:04:07;;;;;;;9.48;5.30;;;;;;;;;;5011007;28;20545;-77
2022/07/09 08:06:34;;;;;;;9.50;4.80;;;;;;;;;;5012326;28;20026;-77
2022/07/09 08:08:59;;;;;;;6.60;4.65;;;;;;;;;;5010653;28;20549;-76
2022/07/09 08:11:25;;;;;;;9.63;4.60;;;;;;;;;;5011055;28;20037;-79
2022/07/09 08:13:50;;;;;;;8.40;4.80;;;;;;;;;;5012080;28;20760;-77
2022/07/09 08:16:16;;;;;;;7.13;4.72;;;;;;;;;;5010931;28;20025;-77
2022/07/09 08:18:41;;;;;;;9.27;4.20;;;;;;;;;;5010782;28;20401;-77
2022/07/09 08:21:07;;;;;;;6.63;4.43;;;;;;;;;;5010573;28;20029;-78
2022/07/09 08:23:50;;;;;;;8.63;4.95;;;;;;;;;;5010597;28;20467;-77
2022/07/09 08:26:26;;;;;;;4.55;3.72;;;;;;;;;;5011562;28;20046;-77
2022/07/09 08:28:52;;;;;;;10.63;4.45;;;;;;;;;;5010806;28;20053;-78
2022/07/09 08:31:19;;;;;;;6.68;4.15;;;;;;;;;;5011982;28;20030;-77
2022/07/09 08:33:45;;;;;;;11.02;4.57;;;;;;;;;;5010572;28;20458;-75
2022/07/09 08:36:11;;;;;;;4.68;4.18;;;;;;;;;;5011772;28;20022;-77
2022/07/09 08:38:37;;;;;;;16.80;4.85;;;;;;;;;;5010486;28;20021;-76
2022/07/09 08:41:04;;;;;;;9.25;5.25;;;;;;;;;;5011781;28;20083;-77
2022/07/09 08:43:33;;;;;;;7.68;4.72;;;;;;;;;;5010313;28;20029;-76
2022/07/09 08:45:59;;;;;;;6.70;4.57;;;;;;;;;;5009966;28;20032;-77
2022/07/09 08:48:24;;;;;;;9.60;4.75;;;;;;;;;;5010438;28;20026;-76
2022/07/09 08:50:51;;;;;;;6.03;4.47;;;;;;;;;;5010269;28;20029;-77
2022/07/09 08:53:17;;;;;;;8.27;4.60;;;;;;;;;;5009943;28;20025;-77
2022/07/09 08:55:47;;;;;;;8.05;5.72;;;;;;;;;;5011370;28;20029;-78
2022/07/09 08:58:14;;;;;;;5.55;4.93;;;;;;;;;;5011063;28;20516;-77
2022/07/09 09:00:40;;;;;;;8.70;5.03;;;;;;;;;;5011466;28;20088;-78
2022/07/09 09:03:08;;;;;;;8.48;5.10;;;;;;;;;;5010261;28;20056;-78
2022/07/09 09:05:33;;;;;;;6.50;4.45;;;;;;;;;;5010815;28;20057;-77
2022/07/09 09:07:59;;;;;;;6.57;4.85;;;;;;;;;;5013255;28;20060;-77
2022/07/09 09:10:28;;;;;;;7.05;4.95;;;;;;;;;;5016196;28;20057;-78
2022/07/09 09:13:01;;;;;;;7.65;5.60;;;;;;;;;;5013041;28;20033;-77
2022/07/09 09:15:29;;;;;;;9.07;5.20;;;;;;;;;;5011571;28;20478;-77
2022/07/09 09:17:56;;;;;;;6.72;5.70;;;;;;;;;;5020540;28;20129;-77
2022/07/09 09:20:22;;;;;;;10.32;4.75;;;;;;;;;;5030377;28;20092;-78
2022/07/09 09:23:04;;;;;;;7.90;5.20;;;;;;;;;;5028533;28;20029;-77
2022/07/09 09:25:29;;;;;;;5.70;5.20;;;;;;;;;;5026840;28;20073;-77
2022/07/09 09:27:59;;;;;;;7.85;5.45;;;;;;;;;;5014373;28;20026;-78
2022/07/09 09:30:29;;;;;;;5.07;4.43;;;;;;;;;;5013104;28;20076;-78
2022/07/09 09:33:03;;;;;;;6.50;4.75;;;;;;;;;;5011068;28;20026;-76
2022/07/09 09:35:43;;;;;;;9.77;4.75;;;;;;;;;;5012374;28;20105;-78
2022/07/09 09:38:08;;;;;;;6.05;4.97;;;;;;;;;;5011526;28;20037;-78
2022/07/09 09:40:35;;;;;;;7.75;5.38;;;;;;;;;;5013593;28;20026;-81
2022/07/09 09:43:02;;;;;;;8.05;5.38;;;;;;;;;;5013149;28;20033;-78
2022/07/09 09:45:28;;;;;;;7.57;5.30;;;;;;;;;;5011504;28;20088;-77
2022/07/09 09:47:54;;;;;;;5.85;5.25;;;;;;;;;;5011161;28;20170;-78
2022/07/09 09:50:22;;;;;;;6.68;5.03;;;;;;;;;;5010841;28;20025;-79
2022/07/09 09:52:50;;;;;;;6.90;4.93;;;;;;;;;;5009852;28;20029;-77
2022/07/09 09:55:17;;;;;;;10.13;5.75;;;;;;;;;;5010469;28;20029;-79
2022/07/09 09:57:43;;;;;;;4.40;4.00;;;;;;;;;;5009588;28;20022;-80
2022/07/09 10:00:11;;;;;;;6.95;4.30;;;;;;;;;;5010542;28;20053;-79
2022/07/09 10:02:41;;;;;;;4.88;4.07;;;;;;;;;;5009124;28;20394;-79
2022/07/09 10:05:07;;;;;;;15.35;3.80;;;;;;;;;;5010319;28;20093;-78
2022/07/09 10:07:33;;;;;;;4.43;4.03;;;;;;;;;;5025787;28;20462;-79
2022/07/09 10:09:59;;;;;;;6.68;4.13;;;;;;;;;;5010073;28;20149;-77
2022/07/09 10:12:35;;;;;;;6.82;4.20;;;;;;;;;;5009945;28;20025;-78
2022/07/09 10:15:02;;;;;;;4.97;3.30;;;;;;;;;;4995003;28;20080;-77
2022/07/09 10:17:27;;;;;;;6.13;3.88;;;;;;;;;;5010782;28;20029;-78
2022/07/09 10:20:04;;;;;;;6.65;3.70;;;;;;;;;;5008738;28;20048;-77
2022/07/09 10:22:36;;;;;;;5.22;3.10;;;;;;;;;;5008506;28;20051;-77
2022/07/09 10:25:01;;;;;;;4.25;3.85;;;;;;;;;;5008175;28;20128;-78
2022/07/09 10:27:27;;;;;;;4.93;3.20;;;;;;;;;;5009018;28;20125;-77
2022/07/09 10:29:59;;;;;;;4.50;2.90;;;;;;;;;;5010228;28;20084;-78
2022/07/09 10:32:30;;;;;;;3.03;2.72;;;;;;;;;;5008986;28;20041;-77
2022/07/09 10:35:00;;;;;;;2.90;2.60;;;;;;;;;;5008549;28;20032;-79
2022/07/09 10:37:42;;;;;;;3.20;2.95;;;;;;;;;;5008673;28;20076;-78
2022/07/09 10:40:10;;;;;;;;;;;;;;;;;;5009417;28;20226;-79
2022/07/09 10:42:36;;;;;;;4.07;3.67;;;;;;;;;;5010475;28;19913;-78
2022/07/09 10:45:04;;;;;;;2.97;2.78;;;;;;;;;;5008623;28;20040;-77
2022/07/09 10:47:38;;;;;;;3.88;2.90;;;;;;;;;;5024938;28;20030;-79
2022/07/09 10:50:05;;;;;;;3.90;3.20;;;;;;;;;;5008625;28;20266;-78
2022/07/09 10:52:31;;;;;;;3.50;3.10;;;;;;;;;;5009428;28;20028;-77
2022/07/09 10:54:56;;;;;;;6.20;2.80;;;;;;;;;;5008877;28;20025;-78
2022/07/09 10:57:22;;;;;;;9.73;3.25;;;;;;;;;;4992155;28;20390;-78
2022/07/09 10:59:48;;;;;;;4.97;3.22;;;;;;;;;;5008707;28;20116;-78
2022/07/09 11:02:22;;;;;;;3.25;2.95;;;;;;;;;;5008801;28;20454;-78
2022/07/09 11:04:52;;;;;;;3.22;2.92;;;;;;;;;;5011425;28;20030;-78
2022/07/09 11:07:22;;;;;;;5.43;4.28;;;;;;;;;;5009487;28;20113;-79
2022/07/09 11:09:48;;;;;;;3.37;3.07;;;;;;;;;;5008502;28;20080;-77
2022/07/09 11:12:18;;;;;;;3.67;2.45;;;;;;;;;;5009555;28;20259;-77
2022/07/09 11:14:45;;;;;;;7.63;2.60;;;;;;;;;;5008910;28;20294;-78
2022/07/09 11:17:15;;;;;;;3.60;2.60;;;;;;;;;;5008738;28;20026;-78
2022/07/09 11:19:41;;;;;;;3.15;2.80;;;;;;;;;;5009108;28;20038;-78
2022/07/09 11:22:07;;;;;;;5.47;2.83;;;;;;;;;;5008002;28;20088;-78
2022/07/09 11:24:32;;;;;;;4.05;3.15;;;;;;;;;;5008855;28;20053;-78
2022/07/09 11:27:02;;;;;;;4.30;3.33;;;;;;;;;;5008340;28;20069;-79
2022/07/09 11:29:28;;;;;;;4.63;2.65;;;;;;;;;;5008737;28;20442;-78
2022/07/09 11:31:54;;;;;;;3.63;3.22;;;;;;;;;;5008396;28;20061;-79
2022/07/09 11:34:20;;;;;;;5.78;3.28;;;;;;;;;;5011931;28;20442;-78
2022/07/09 11:36:58;;;;;;;5.05;3.10;;;;;;;;;;4996338;28;20029;-79
2022/07/09 11:39:28;;;;;;;6.07;3.08;;;;;;;;;;5012291;28;20029;-79
2022/07/09 11:41:54;;;;;;;8.50;3.70;;;;;;;;;;5015271;28;20029;-78
2022/07/09 11:44:22;;;;;;;4.32;3.00;;;;;;;;;;5017109;28;20054;-78
2022/07/09 11:47:07;;;;;;;5.20;3.08;;;;;;;;;;5011774;28;20030;-78
2022/07/09 11:49:37;;;;;;;3.10;2.78;;;;;;;;;;5012334;28;20056;-79
2022/07/09 11:52:04;;;;;;;6.63;3.08;;;;;;;;;;5011576;28;20034;-77
2022/07/09 11:54:31;;;;;;;3.58;2.80;;;;;;;;;;5011785;28;20041;-78
2022/07/09 11:56:57;;;;;;;2.67;2.47;;;;;;;;;;5013144;28;20030;-78
2022/07/09 11:59:34;;;;;;;3.83;2.10;;;;;;;;;;5012762;28;20386;-77
2022/07/09 12:02:02;;;;;;;3.72;2.33;;;;;;;;;;4996075;28;20121;-78
2022/07/09 12:04:30;;;;;;;3.97;2.13;;;;;;;;;;5013008;28;20339;-79
2022/07/09 12:06:56;;;;;;;4.15;1.85;;;;;;;;;;5011904;28;20079;-79
2022/07/09 12:09:32;;;;;;;4.10;2.53;;;;;;;;;;5014575;28;20026;-77
2022/07/09 12:11:58;;;;;;;3.85;2.03;;;;;;;;;;5013783;28;20478;-78
2022/07/09 12:14:24;;;;;;;5.22;2.00;;;;;;;;;;4995736;28;20079;-78
2022/07/09 12:16:50;;;;;;;2.90;1.80;;;;;;;;;;5013208;28;20022;-78
2022/07/09 12:19:16;;;;;;;3.65;1.98;;;;;;;;;;5028444;28;20037;-79
2022/07/09 12:21:42;;;;;;;1.73;1.60;;;;;;;;;;5011697;28;20030;-78
2022/07/09 12:24:08;;;;;;;2.75;1.42;;;;;;;;;;5027478;28;20120;-78
2022/07/09 12:26:33;;;;;;;6.07;1.92;;;;;;;;;;4994768;28;20049;-78
2022/07/09 12:29:00;;;;;;;3.03;2.03;;;;;;;;;;5013063;28;20385;-78
2022/07/09 12:31:25;;;;;;;12.48;1.90;;;;;;;;;;5012777;28;20036;-78
2022/07/09 12:33:51;;;;;;;4.47;1.73;;;;;;;;;;5029230;28;20026;-80
2022/07/09 12:36:16;;;;;;;3.28;1.70;;;;;;;;;;5028561;28;20279;-79
2022/07/09 12:38:42;;;;;;;3.92;2.60;;;;;;;;;;5013678;28;20026;-79
2022/07/09 12:41:08;;;;;;;3.38;1.90;;;;;;;;;;5018129;28;20037;-76
2022/07/09 12:43:34;;;;;;;2.15;1.52;;;;;;;;;;5018131;28;20026;-78
2022/07/09 12:45:59;;;;;;;3.05;1.80;;;;;;;;;;5015877;28;20509;-79
2022/07/09 12:48:25;;;;;;;3.78;2.25;;;;;;;;;;5013620;28;20464;-77
2022/07/09 12:50:50;;;;;;;3.38;2.75;;;;;;;;;;5012244;28;20037;-79
2022/07/09 12:53:16;;;;;;;7.40;2.97;;;;;;;;;;5011289;28;20022;-78
2022/07/09 12:55:41;;;;;;;5.45;2.72;;;;;;;;;;5012651;28;20411;-78
2022/07/09 12:58:07;;;;;;;6.05;1.67;;;;;;;;;;5014936;28;20385;-78
2022/07/09 13:00:32;;;;;;;2.65;1.92;;;;;;;;;;5015353;28;20041;-78
2022/07/09 13:02:58;;;;;;;3.20;2.10;;;;;;;;;;5024765;28;20041;-77
2022/07/09 13:05:23;;;;;;;3.28;2.85;;;;;;;;;;5031614;28;20076;-77
2022/07/09 13:07:50;;;;;;;3.05;2.08;;;;;;;;;;5032207;28;20030;-79
2022/07/09 13:10:16;;;;;;;3.20;2.30;;;;;;;;;;5026299;28;20429;-78
2022/07/09 13:12:41;;;;;;;2.47;2.28;;;;;;;;;;5015367;28;20104;-78
2022/07/09 13:15:08;;;;;;;8.30;2.55;;;;;;;;;;5012316;28;20112;-79
2022/07/09 13:17:33;;;;;;;5.28;2.95;;;;;;;;;;5027072;28;20399;-79
2022/07/09 13:19:59;;;;;;;6.75;3.55;;;;;;;;;;5011186;28;20173;-80
2022/07/09 13:22:26;;;;;;;4.78;3.30;;;;;;;;;;5011960;28;20026;-79
2022/07/09 13:24:52;;;;;;;4.03;3.58;;;;;;;;;;5012448;28;20030;-78
2022/07/09 13:27:18;;;;;;;6.20;3.92;;;;;;;;;;5011586;28;20386;-79
2022/07/09 13:29:45;;;;;;;4.50;3.65;;;;;;;;;;5011548;28;20049;-78
2022/07/09 13:32:10;;;;;;;8.00;4.70;;;;;;;;;;5009731;28;20470;-75
2022/07/09 13:34:36;;;;;;;5.75;4.35;;;;;;;;;;5010148;28;20057;-79
2022/07/09 13:37:02;;;;;;;10.23;5.70;;;;;;;;;;5011315;28;20013;-79
2022/07/09 13:39:28;;;;;;;4.88;4.40;;;;;;;;;;4993021;28;20080;-79
2022/07/09 13:41:53;;;;;;;9.75;4.53;;;;;;;;;;5012652;28;20030;-78
2022/07/09 13:44:19;;;;;;;6.63;4.35;;;;;;;;;;5011697;28;20100;-79
2022/07/09 13:46:44;;;;;;;5.18;4.30;;;;;;;;;;5010945;28;20136;-79
2022/07/09 13:49:10;;;;;;;5.75;3.38;;;;;;;;;;5009984;28;20038;-79
2022/07/09 13:51:36;;;;;;;18.73;5.45;;;;;;;;;;5009525;28;20037;-79
2022/07/09 13:54:01;;;;;;;5.65;3.40;;;;;;;;;;5009288;28;20038;-80
2022/07/09 13:56:27;;;;;;;3.47;2.45;;;;;;;;;;5010242;28;20075;-80
2022/07/09 13:58:52;;;;;;;3.42;2.40;;;;;;;;;;5009889;28;20148;-78
2022/07/09 14:01:19;;;;;;;5.30;2.70;;;;;;;;;;5010559;28;20401;-79
2022/07/09 14:03:45;;;;;;;4.78;3.60;;;;;;;;;;5009505;28;20618;-79
2022/07/09 14:06:11;;;;;;;2.92;2.15;;;;;;;;;;5011302;28;20030;-79
2022/07/09 14:08:38;;;;;;;2.10;1.88;;;;;;;;;;5011905;28;20032;-79
2022/07/09 14:11:03;;;;;;;2.90;1.73;;;;;;;;;;5011175;28;20045;-79
2022/07/09 14:13:30;;;;;;;2.17;1.92;;;;;;;;;;5009101;28;20030;-79
2022/07/09 14:15:57;;;;;;;2.28;1.92;;;;;;;;;;5009821;28;20100;-78
2022/07/09 14:18:23;;;;;;;3.10;2.13;;;;;;;;;;5011821;28;20270;-80
2022/07/09 14:20:49;;;;;;;7.70;3.22;;;;;;;;;;5020992;28;20061;-79
2022/07/09 14:23:15;;;;;;;7.78;3.42;;;;;;;;;;5019980;28;20036;-78
2022/07/09 14:25:41;;;;;;;6.07;3.10;;;;;;;;;;5036168;28;20049;-81
2022/07/09 14:28:06;;;;;;;5.97;2.92;;;;;;;;;;5014514;28;20382;-80
2022/07/09 14:30:33;;;;;;;5.55;2.83;;;;;;;;;;5011228;28;20072;-79
2022/07/09 14:33:00;;;;;;;8.98;3.67;;;;;;;;;;5009701;28;20038;-80
2022/07/09 14:35:26;;;;;;;6.93;3.92;;;;;;;;;;5010286;28;20048;-79
2022/07/09 14:37:52;;;;;;;7.93;3.70;;;;;;;;;;5009024;28;20030;-81